createdAt,value
2019-01-31T00:00:51.125Z,93905.26
2019-01-31T00:02:21.822Z,93903.76
2019-01-31T00:03:30.723Z,93904.34
2019-01-31T00:04:37.194Z,93902.35
2019-01-31T00:05:49.598Z,93905.70
2019-01-31T00:06:56.162Z,93898.85
2019-01-31T00:08:14.379Z,93898.09
2019-01-31T00:09:26.590Z,93896.78
2019-01-31T00:10:47.880Z,93896.15
2019-01-31T00:11:54.361Z,93896.73
2019-01-31T00:13:12.501Z,93892.35
2019-01-31T00:14:21.644Z,93895.87
2019-01-31T00:15:30.670Z,93896.48
2019-01-31T00:16:45.775Z,93890.52
2019-01-31T00:17:58.171Z,93893.11
2019-01-31T00:19:04.645Z,93884.70
2019-01-31T00:20:28.703Z,93892.47
2019-01-31T00:21:35.187Z,93889.71
2019-01-31T00:22:47.199Z,93885.63
2019-01-31T00:24:02.317Z,93881.52
2019-01-31T00:25:38.918Z,93880.80
2019-01-31T00:26:59.955Z,93884.69
2019-01-31T00:28:24.308Z,93888.20
2019-01-31T00:29:30.872Z,93882.69
2019-01-31T00:30:42.520Z,93887.66
2019-01-31T00:32:03.817Z,93880.80
2019-01-31T00:33:12.980Z,93882.97
2019-01-31T00:34:25.113Z,93880.80
2019-01-31T00:35:37.258Z,93880.92
2019-01-31T00:36:58.592Z,93885.80
2019-01-31T00:38:22.417Z,93887.03
2019-01-31T00:39:47.697Z,93883.33
2019-01-31T00:41:14.663Z,93883.21
2019-01-31T00:42:29.984Z,93875.83
2019-01-31T00:43:54.056Z,93879.36
2019-01-31T00:45:03.540Z,93877.56
2019-01-31T00:46:24.632Z,93874.77
2019-01-31T00:47:55.061Z,93881.84
2019-01-31T00:49:01.536Z,93881.48
2019-01-31T00:50:34.922Z,93876.89
2019-01-31T00:51:44.365Z,93878.39
2019-01-31T00:52:59.534Z,93880.25
2019-01-31T00:54:14.795Z,93880.41
2019-01-31T00:55:24.120Z,93879.10
2019-01-31T00:56:35.849Z,93883.16
2019-01-31T00:57:45.310Z,93881.25
2019-01-31T00:58:54.366Z,93882.84
2019-01-31T01:00:03.280Z,93880.09
2019-01-31T01:01:15.631Z,93877.51
2019-01-31T01:02:36.893Z,93878.66
2019-01-31T01:04:05.381Z,93880.02
2019-01-31T01:05:23.738Z,93875.39
2019-01-31T01:06:49.399Z,93882.45
2019-01-31T01:08:01.626Z,93873.59
2019-01-31T01:09:27.175Z,93875.44
2019-01-31T01:10:42.138Z,93878.20
2019-01-31T01:11:57.278Z,93875.84
2019-01-31T01:13:14.628Z,93874.20
2019-01-31T01:14:24.019Z,93877.29
2019-01-31T01:15:52.688Z,93884.34
2019-01-31T01:16:59.168Z,93878.03
2019-01-31T01:18:14.405Z,93882.28
2019-01-31T01:19:20.880Z,93878.72
2019-01-31T01:20:39.237Z,93883.84
2019-01-31T01:21:51.485Z,93885.12
2019-01-31T01:23:00.836Z,93886.95
2019-01-31T01:24:07.334Z,93884.55
2019-01-31T01:25:29.837Z,93884.00
2019-01-31T01:26:48.121Z,93880.84
2019-01-31T01:28:06.546Z,93884.00
2019-01-31T01:29:28.139Z,93884.37
2019-01-31T01:31:00.090Z,93886.57
2019-01-31T01:32:21.558Z,93878.59
2019-01-31T01:33:39.756Z,93882.46
2019-01-31T01:35:03.739Z,93876.85
2019-01-31T01:36:21.984Z,93877.52
2019-01-31T01:37:53.756Z,93876.43
2019-01-31T01:39:18.886Z,93877.36
2019-01-31T01:40:35.476Z,93873.86
2019-01-31T01:41:44.844Z,93876.09
2019-01-31T01:43:07.823Z,93872.02
2019-01-31T01:44:29.210Z,93871.86
2019-01-31T01:45:50.504Z,93874.34
2019-01-31T01:47:14.680Z,93873.63
2019-01-31T01:48:27.216Z,93871.64
2019-01-31T01:49:36.221Z,93869.16
2019-01-31T01:50:45.543Z,93874.16
2019-01-31T01:52:18.748Z,93873.95
2019-01-31T01:53:27.762Z,93873.93
2019-01-31T01:54:53.122Z,93875.25
2019-01-31T01:56:18.580Z,93871.94
2019-01-31T01:57:33.626Z,93869.45
2019-01-31T01:58:45.650Z,93870.41
2019-01-31T02:00:18.959Z,93873.14
2019-01-31T02:01:46.118Z,93868.23
2019-01-31T02:03:07.359Z,93865.71
2019-01-31T02:04:22.464Z,93869.36
2019-01-31T02:05:40.419Z,93864.17
2019-01-31T02:06:49.665Z,93864.50
2019-01-31T02:08:04.859Z,93865.18
2019-01-31T02:09:11.403Z,93862.05
2019-01-31T02:10:32.442Z,93858.66
2019-01-31T02:11:47.568Z,93853.26
2019-01-31T02:13:11.347Z,93855.45
2019-01-31T02:14:38.639Z,93853.49
2019-01-31T02:15:45.138Z,93858.45
2019-01-31T02:17:10.593Z,93851.55
2019-01-31T02:18:19.619Z,93847.12
2019-01-31T02:19:54.718Z,93841.95
2019-01-31T02:21:22.043Z,93840.58
2019-01-31T02:22:52.552Z,93839.67
2019-01-31T02:24:04.826Z,93837.41
2019-01-31T02:25:14.241Z,93834.56
2019-01-31T02:26:20.698Z,93836.31
2019-01-31T02:27:44.831Z,93835.09
2019-01-31T02:28:57.459Z,93832.53
2019-01-31T02:30:20.182Z,93833.51
2019-01-31T02:31:38.328Z,93828.28
2019-01-31T02:32:47.760Z,93828.63
2019-01-31T02:33:57.219Z,93826.79
2019-01-31T02:35:15.324Z,93832.30
2019-01-31T02:36:36.589Z,93830.09
2019-01-31T02:38:10.072Z,93827.56
2019-01-31T02:39:47.801Z,93826.61
2019-01-31T02:41:02.811Z,93829.23
2019-01-31T02:42:24.832Z,93821.06
2019-01-31T02:43:48.736Z,93818.11
2019-01-31T02:44:57.981Z,93825.33
2019-01-31T02:46:04.468Z,93818.86
2019-01-31T02:47:13.525Z,93815.22
2019-01-31T02:48:20.028Z,93816.14
2019-01-31T02:49:32.347Z,93809.13
2019-01-31T02:50:44.433Z,93815.23
2019-01-31T02:51:56.676Z,93809.52
2019-01-31T02:53:06.052Z,93802.98
2019-01-31T02:54:28.800Z,93797.37
2019-01-31T02:55:46.964Z,93794.79
2019-01-31T02:56:59.014Z,93799.94
2019-01-31T02:58:14.213Z,93798.39
2019-01-31T02:59:29.397Z,93804.65
2019-01-31T03:00:56.419Z,93803.90
2019-01-31T03:02:11.676Z,93800.62
2019-01-31T03:03:23.580Z,93800.84
2019-01-31T03:04:30.073Z,93799.02
2019-01-31T03:05:36.559Z,93802.16
2019-01-31T03:06:57.534Z,93797.89
2019-01-31T03:08:15.727Z,93796.97
2019-01-31T03:09:25.077Z,93791.80
2019-01-31T03:10:31.685Z,93791.64
2019-01-31T03:11:40.818Z,93793.84
2019-01-31T03:12:59.052Z,93791.02
2019-01-31T03:14:10.155Z,93787.89
2019-01-31T03:15:22.734Z,93795.03
2019-01-31T03:16:38.066Z,93788.91
2019-01-31T03:17:59.398Z,93783.55
2019-01-31T03:19:23.647Z,93787.69
2019-01-31T03:20:38.703Z,93776.94
2019-01-31T03:21:56.897Z,93780.20
2019-01-31T03:23:12.159Z,93779.45
2019-01-31T03:24:33.347Z,93774.28
2019-01-31T03:25:42.737Z,93778.00
2019-01-31T03:27:11.326Z,93774.30
2019-01-31T03:28:35.606Z,93779.47
2019-01-31T03:29:58.073Z,93779.67
2019-01-31T03:31:32.941Z,93775.44
2019-01-31T03:32:45.072Z,93775.80
2019-01-31T03:33:57.214Z,93773.01
2019-01-31T03:35:14.978Z,93770.58
2019-01-31T03:36:30.166Z,93770.42
2019-01-31T03:37:42.222Z,93770.02
2019-01-31T03:38:54.205Z,93776.50
2019-01-31T03:40:12.215Z,93769.72
2019-01-31T03:41:26.980Z,93771.02
2019-01-31T03:42:49.810Z,93765.59
2019-01-31T03:43:56.287Z,93764.84
2019-01-31T03:45:02.762Z,93767.89
2019-01-31T03:46:09.254Z,93766.97
2019-01-31T03:47:21.590Z,93764.89
2019-01-31T03:48:30.934Z,93770.47
2019-01-31T03:49:40.489Z,93765.52
2019-01-31T03:50:47.042Z,93765.30
2019-01-31T03:52:08.268Z,93770.97
2019-01-31T03:53:23.533Z,93762.64
2019-01-31T03:54:44.715Z,93760.11
2019-01-31T03:56:15.643Z,93761.56
2019-01-31T03:57:27.310Z,93758.46
2019-01-31T03:58:36.348Z,93761.35
2019-01-31T03:59:39.845Z,93760.86
2019-01-31T04:00:58.271Z,93762.85
2019-01-31T04:02:28.893Z,93761.69
2019-01-31T04:03:35.369Z,93753.34
2019-01-31T04:04:41.857Z,93757.61
2019-01-31T04:05:48.332Z,93754.06
2019-01-31T04:06:51.817Z,93748.28
2019-01-31T04:07:55.212Z,93750.95
2019-01-31T04:08:58.631Z,93746.54
2019-01-31T04:10:02.219Z,93745.41
2019-01-31T04:11:05.800Z,93743.54
2019-01-31T04:12:09.359Z,93738.79
2019-01-31T04:13:12.787Z,93741.89
2019-01-31T04:14:16.216Z,93740.67
2019-01-31T04:15:19.705Z,93739.02
2019-01-31T04:16:23.224Z,93732.02
2019-01-31T04:17:26.666Z,93734.06
2019-01-31T04:18:30.090Z,93733.47
2019-01-31T04:19:33.513Z,93737.47
2019-01-31T04:20:36.973Z,93729.57
2019-01-31T04:21:40.490Z,93726.55
2019-01-31T04:22:43.934Z,93726.39
2019-01-31T04:23:47.368Z,93724.58
2019-01-31T04:24:50.796Z,93724.61
2019-01-31T04:25:54.232Z,93721.17
2019-01-31T04:26:57.661Z,93721.35
2019-01-31T04:28:01.081Z,93722.98
2019-01-31T04:29:04.662Z,93718.91
2019-01-31T04:30:11.134Z,93717.22
2019-01-31T04:31:14.694Z,93719.23
2019-01-31T04:32:18.145Z,93715.30
2019-01-31T04:33:21.576Z,93713.84
2019-01-31T04:34:25.005Z,93715.84
2019-01-31T04:35:28.510Z,93713.99
2019-01-31T04:36:32.045Z,93711.02
2019-01-31T04:37:35.541Z,93718.05
2019-01-31T04:38:39.054Z,93711.64
2019-01-31T04:39:42.549Z,93715.55
2019-01-31T04:40:46.047Z,93707.64
2019-01-31T04:41:49.476Z,93712.27
2019-01-31T04:42:52.917Z,93709.86
2019-01-31T04:43:56.347Z,93709.34
2019-01-31T04:44:59.774Z,93707.56
2019-01-31T04:46:03.275Z,93708.52
2019-01-31T04:47:06.765Z,93706.84
2019-01-31T04:48:10.207Z,93704.45
2019-01-31T04:49:13.647Z,93702.26
2019-01-31T04:50:17.237Z,93701.14
2019-01-31T04:51:20.653Z,93700.97
2019-01-31T04:52:24.148Z,93704.09
2019-01-31T04:53:27.598Z,93703.34
2019-01-31T04:54:31.121Z,93700.58
2019-01-31T04:55:34.613Z,93705.77
2019-01-31T04:56:38.043Z,93704.84
2019-01-31T04:57:41.532Z,93704.45
2019-01-31T04:58:44.981Z,93701.28
2019-01-31T04:59:48.427Z,93704.09
2019-01-31T05:00:51.916Z,93700.23
2019-01-31T05:01:55.358Z,93703.03
2019-01-31T05:02:58.798Z,93697.63
2019-01-31T05:04:02.295Z,93705.52
2019-01-31T05:05:07.201Z,93705.13
2019-01-31T05:06:10.664Z,93712.31
2019-01-31T05:07:14.219Z,93707.56
2019-01-31T05:08:17.654Z,93710.53
2019-01-31T05:09:21.115Z,93710.48
2019-01-31T05:10:24.570Z,93711.98
2019-01-31T05:11:28.106Z,93713.03
2019-01-31T05:12:31.520Z,93707.09
2019-01-31T05:13:34.962Z,93711.75
2019-01-31T05:14:38.409Z,93709.94
2019-01-31T05:15:42.008Z,93709.19
2019-01-31T05:16:45.595Z,93711.02
2019-01-31T05:17:49.084Z,93719.67
2019-01-31T05:18:52.516Z,93713.58
2019-01-31T05:19:55.962Z,93715.80
2019-01-31T05:20:59.506Z,93716.16
2019-01-31T05:22:03.023Z,93723.55
2019-01-31T05:23:06.452Z,93721.35
2019-01-31T05:24:09.898Z,93724.53
2019-01-31T05:25:14.677Z,93722.70
2019-01-31T05:26:18.176Z,93719.88
2019-01-31T05:27:21.618Z,93722.08
2019-01-31T05:28:25.182Z,93726.88
2019-01-31T05:29:28.847Z,93725.80
2019-01-31T05:30:32.295Z,93722.65
2019-01-31T05:31:35.876Z,93721.88
2019-01-31T05:32:39.366Z,93719.29
2019-01-31T05:33:42.800Z,93715.02
2019-01-31T05:34:46.297Z,93717.61
2019-01-31T05:35:49.824Z,93721.48
2019-01-31T05:36:53.338Z,93717.27
2019-01-31T05:37:56.770Z,93719.44
2019-01-31T05:39:00.192Z,93721.30
2019-01-31T05:40:04.875Z,93724.61
2019-01-31T05:41:08.306Z,93725.20
2019-01-31T05:42:11.761Z,93724.66
2019-01-31T05:43:15.187Z,93727.78
2019-01-31T05:44:18.690Z,93716.70
2019-01-31T05:45:22.123Z,93717.81
2019-01-31T05:46:25.631Z,93720.94
2019-01-31T05:47:29.097Z,93712.41
2019-01-31T05:48:32.686Z,93715.55
2019-01-31T05:49:36.033Z,93711.88
2019-01-31T05:50:39.459Z,93715.39
2019-01-31T05:51:42.978Z,93710.77
2019-01-31T05:52:46.491Z,93712.78
2019-01-31T05:53:49.916Z,93714.07
2019-01-31T05:54:53.340Z,93711.67
2019-01-31T05:55:56.781Z,93717.22
2019-01-31T05:57:00.372Z,93713.94
2019-01-31T05:58:03.963Z,93711.75
2019-01-31T05:59:07.458Z,93714.64
2019-01-31T06:00:16.888Z,93713.50
2019-01-31T06:01:20.321Z,93712.78
2019-01-31T06:02:23.859Z,93711.48
2019-01-31T06:03:27.257Z,93717.05
2019-01-31T06:04:30.755Z,93710.97
2019-01-31T06:05:34.322Z,93713.73
2019-01-31T06:06:37.772Z,93714.13
2019-01-31T06:07:41.268Z,93708.18
2019-01-31T06:08:44.827Z,93703.02
2019-01-31T06:09:48.348Z,93708.72
2019-01-31T06:10:51.801Z,93704.83
2019-01-31T06:11:55.246Z,93708.16
2019-01-31T06:12:58.756Z,93714.80
2019-01-31T06:14:02.302Z,93716.23
2019-01-31T06:15:08.746Z,93715.13
2019-01-31T06:16:12.264Z,93713.66
2019-01-31T06:17:15.752Z,93711.07
2019-01-31T06:18:19.226Z,93715.52
2019-01-31T06:19:22.655Z,93714.41
2019-01-31T06:20:26.420Z,93714.41
2019-01-31T06:21:29.849Z,93710.35
2019-01-31T06:22:33.289Z,93718.82
2019-01-31T06:23:36.727Z,93720.11
2019-01-31T06:24:40.164Z,93721.07
2019-01-31T06:25:43.614Z,93720.47
2019-01-31T06:26:47.117Z,93713.47
2019-01-31T06:27:50.697Z,93720.70
2019-01-31T06:28:54.273Z,93720.34
2019-01-31T06:29:57.694Z,93720.92
2019-01-31T06:31:01.115Z,93723.11
2019-01-31T06:32:04.681Z,93718.67
2019-01-31T06:33:08.172Z,93718.13
2019-01-31T06:34:11.783Z,93723.83
2019-01-31T06:35:15.450Z,93715.52
2019-01-31T06:36:18.873Z,93725.80
2019-01-31T06:37:22.321Z,93723.94
2019-01-31T06:38:25.878Z,93724.11
2019-01-31T06:39:29.335Z,93722.67
2019-01-31T06:40:32.787Z,93727.68
2019-01-31T06:41:36.224Z,93728.07
2019-01-31T06:42:39.750Z,93730.86
2019-01-31T06:43:43.191Z,93731.55
2019-01-31T06:44:46.723Z,93727.98
2019-01-31T06:45:50.179Z,93732.77
2019-01-31T06:46:53.608Z,93731.47
2019-01-31T06:47:57.035Z,93735.41
2019-01-31T06:49:00.550Z,93734.27
2019-01-31T06:50:05.049Z,93732.41
2019-01-31T06:51:08.563Z,93735.50
2019-01-31T06:52:11.998Z,93731.59
2019-01-31T06:53:15.437Z,93728.80
2019-01-31T06:54:18.868Z,93727.87
2019-01-31T06:55:22.466Z,93732.67
2019-01-31T06:56:25.900Z,93731.90
2019-01-31T06:57:29.338Z,93735.20
2019-01-31T06:58:32.773Z,93732.62
2019-01-31T06:59:36.273Z,93735.20
2019-01-31T07:00:39.766Z,93736.67
2019-01-31T07:01:43.282Z,93737.99
2019-01-31T07:02:46.788Z,93738.74
2019-01-31T07:03:50.321Z,93744.81
2019-01-31T07:04:53.811Z,93745.02
2019-01-31T07:05:57.270Z,93745.95
2019-01-31T07:07:00.802Z,93745.95
2019-01-31T07:08:04.795Z,93743.76
2019-01-31T07:09:09.981Z,93741.17
2019-01-31T07:10:24.735Z,93736.94
2019-01-31T07:11:30.055Z,93748.17
2019-01-31T07:12:33.441Z,93745.05
2019-01-31T07:13:36.887Z,93745.95
2019-01-31T07:14:40.329Z,93750.03
2019-01-31T07:15:43.787Z,93749.85
2019-01-31T07:16:47.376Z,93746.97
2019-01-31T07:17:50.888Z,93746.81
2019-01-31T07:18:54.316Z,93740.95
2019-01-31T07:19:57.754Z,93744.66
2019-01-31T07:21:01.276Z,93738.94
2019-01-31T07:22:05.178Z,93735.81
2019-01-31T07:23:08.699Z,93739.48
2019-01-31T07:24:12.201Z,93731.41
2019-01-31T07:25:18.458Z,93731.20
2019-01-31T07:26:21.977Z,93725.84
2019-01-31T07:27:25.410Z,93727.14
2019-01-31T07:28:28.921Z,93728.61
2019-01-31T07:29:32.481Z,93718.82
2019-01-31T07:30:36.017Z,93722.36
2019-01-31T07:31:39.520Z,93713.66
2019-01-31T07:32:42.961Z,93717.50
2019-01-31T07:33:46.462Z,93724.32
2019-01-31T07:34:49.889Z,93720.63
2019-01-31T07:35:53.481Z,93719.72
2019-01-31T07:36:57.020Z,93719.72
2019-01-31T07:38:00.484Z,93727.77
2019-01-31T07:39:05.786Z,93727.40
2019-01-31T07:40:11.965Z,93728.30
2019-01-31T07:41:15.549Z,93729.63
2019-01-31T07:42:19.069Z,93728.77
2019-01-31T07:43:22.605Z,93725.09
2019-01-31T07:44:26.043Z,93727.40
2019-01-31T07:45:31.425Z,93723.55
2019-01-31T07:46:34.857Z,93728.45
2019-01-31T07:47:38.997Z,93733.27
2019-01-31T07:48:42.425Z,93732.54
2019-01-31T07:49:45.941Z,93732.20
2019-01-31T07:50:49.355Z,93734.78
2019-01-31T07:51:52.935Z,93732.59
2019-01-31T07:52:56.543Z,93735.04
2019-01-31T07:54:00.022Z,93738.64
2019-01-31T07:55:03.539Z,93738.56
2019-01-31T07:56:07.123Z,93740.03
2019-01-31T07:57:10.618Z,93742.49
2019-01-31T07:58:14.077Z,93745.08
2019-01-31T07:59:17.501Z,93743.99
2019-01-31T08:00:27.250Z,93738.52
2019-01-31T08:01:30.688Z,93742.41
2019-01-31T08:02:34.182Z,93741.58
2019-01-31T08:03:40.634Z,93741.09
2019-01-31T08:04:42.889Z,93739.98
2019-01-31T08:05:46.537Z,93739.46
2019-01-31T08:06:50.009Z,93739.80
2019-01-31T08:07:58.066Z,93740.58
2019-01-31T08:09:01.593Z,93741.14
2019-01-31T08:10:08.076Z,93737.47
2019-01-31T08:11:11.641Z,93736.95
2019-01-31T08:12:15.146Z,93733.84
2019-01-31T08:13:18.713Z,93736.64
2019-01-31T08:14:22.180Z,93729.61
2019-01-31T08:15:25.757Z,93734.62
2019-01-31T08:16:29.323Z,93731.64
2019-01-31T08:17:32.782Z,93736.81
2019-01-31T08:18:36.362Z,93732.23
2019-01-31T08:19:39.810Z,93737.80
2019-01-31T08:20:43.321Z,93736.36
2019-01-31T08:21:46.827Z,93734.33
2019-01-31T08:22:50.395Z,93732.71
2019-01-31T08:23:53.988Z,93735.73
2019-01-31T08:24:57.396Z,93729.08
2019-01-31T08:26:00.854Z,93727.78
2019-01-31T08:27:04.447Z,93735.91
2019-01-31T08:28:08.016Z,93731.48
2019-01-31T08:29:11.509Z,93740.38
2019-01-31T08:30:23.980Z,93743.89
2019-01-31T08:31:27.475Z,93743.00
2019-01-31T08:32:30.979Z,93749.46
2019-01-31T08:33:34.546Z,93754.25
2019-01-31T08:34:37.977Z,93752.05
2019-01-31T08:35:41.565Z,93748.77
2019-01-31T08:36:45.062Z,93747.84
2019-01-31T08:37:48.622Z,93746.31
2019-01-31T08:38:52.119Z,93748.38
2019-01-31T08:39:55.542Z,93745.64
2019-01-31T08:40:59.068Z,93741.44
2019-01-31T08:42:03.744Z,93748.50
2019-01-31T08:43:07.436Z,93752.56
2019-01-31T08:44:10.929Z,93753.10
2019-01-31T08:45:15.268Z,93751.09
2019-01-31T08:46:18.789Z,93748.50
2019-01-31T08:47:22.267Z,93741.30
2019-01-31T08:48:25.884Z,93735.91
2019-01-31T08:49:29.362Z,93734.36
2019-01-31T08:50:33.133Z,93738.23
2019-01-31T08:51:36.651Z,93736.03
2019-01-31T08:52:41.757Z,93731.47
2019-01-31T08:53:45.175Z,93734.73
2019-01-31T08:54:48.604Z,93735.52
2019-01-31T08:55:52.108Z,93731.11
2019-01-31T08:56:55.622Z,93727.44
2019-01-31T08:57:59.216Z,93729.58
2019-01-31T08:59:02.636Z,93727.09
2019-01-31T09:00:12.011Z,93727.30
2019-01-31T09:01:15.688Z,93732.38
2019-01-31T09:02:19.166Z,93731.27
2019-01-31T09:03:22.661Z,93739.30
2019-01-31T09:04:26.086Z,93741.53
2019-01-31T09:05:29.852Z,93746.80
2019-01-31T09:06:33.426Z,93744.02
2019-01-31T09:07:36.953Z,93739.77
2019-01-31T09:08:40.508Z,93740.73
2019-01-31T09:09:43.894Z,93742.39
2019-01-31T09:10:47.396Z,93736.62
2019-01-31T09:11:50.888Z,93743.14
2019-01-31T09:12:54.397Z,93739.31
2019-01-31T09:13:57.853Z,93739.31
2019-01-31T09:15:01.291Z,93745.05
2019-01-31T09:16:04.793Z,93744.34
2019-01-31T09:17:08.285Z,93746.98
2019-01-31T09:18:11.892Z,93749.41
2019-01-31T09:19:15.383Z,93738.66
2019-01-31T09:20:42.545Z,93743.05
2019-01-31T09:21:47.113Z,93740.13
2019-01-31T09:22:54.068Z,93743.52
2019-01-31T09:24:18.161Z,93742.94
2019-01-31T09:25:42.273Z,93738.84
2019-01-31T09:27:05.315Z,93744.98
2019-01-31T09:28:26.532Z,93739.59
2019-01-31T09:29:32.975Z,93734.95
2019-01-31T09:30:57.283Z,93742.40
2019-01-31T09:32:06.593Z,93744.94
2019-01-31T09:33:24.758Z,93742.72
2019-01-31T09:34:53.529Z,93742.59
2019-01-31T09:36:28.538Z,93740.77
2019-01-31T09:37:51.363Z,93742.83
2019-01-31T09:39:18.682Z,93742.86
2019-01-31T09:40:40.153Z,93743.56
2019-01-31T09:41:58.430Z,93744.16
2019-01-31T09:43:07.832Z,93742.53
2019-01-31T09:44:23.343Z,93742.02
2019-01-31T09:45:32.418Z,93752.22
2019-01-31T09:46:45.002Z,93751.09
2019-01-31T09:48:00.194Z,93750.34
2019-01-31T09:49:09.473Z,93746.86
2019-01-31T09:50:22.077Z,93747.06
2019-01-31T09:51:44.999Z,93743.34
2019-01-31T09:53:07.824Z,93749.45
2019-01-31T09:54:14.328Z,93751.13
2019-01-31T09:55:38.571Z,93750.78
2019-01-31T09:57:16.317Z,93762.10
2019-01-31T09:58:47.965Z,93748.97
2019-01-31T10:00:13.602Z,93747.15
2019-01-31T10:01:25.965Z,93751.41
2019-01-31T10:02:57.885Z,93754.55
2019-01-31T10:04:30.582Z,93754.38
2019-01-31T10:05:56.631Z,93754.20
2019-01-31T10:07:08.654Z,93752.17
2019-01-31T10:08:23.693Z,93761.27
2019-01-31T10:09:30.174Z,93758.67
2019-01-31T10:10:42.273Z,93755.19
2019-01-31T10:12:15.626Z,93752.39
2019-01-31T10:13:56.599Z,93750.91
2019-01-31T10:15:12.059Z,93752.97
2019-01-31T10:16:27.235Z,93746.83
2019-01-31T10:17:42.609Z,93746.47
2019-01-31T10:18:54.647Z,93713.08
2019-01-31T10:20:26.329Z,93746.47
2019-01-31T10:21:35.608Z,93742.94
2019-01-31T10:23:00.411Z,93742.59
2019-01-31T10:24:23.212Z,93741.30
2019-01-31T10:25:44.254Z,93743.31
2019-01-31T10:26:56.331Z,93739.61
2019-01-31T10:28:08.657Z,93735.54
2019-01-31T10:29:15.135Z,93729.97
2019-01-31T10:30:52.633Z,93732.94
2019-01-31T10:32:01.704Z,93735.13
2019-01-31T10:33:11.008Z,93735.47
2019-01-31T10:34:39.386Z,93727.42
2019-01-31T10:35:51.774Z,93726.58
2019-01-31T10:37:10.259Z,93724.22
2019-01-31T10:38:19.170Z,93725.86
2019-01-31T10:39:31.337Z,93721.98
2019-01-31T10:41:01.348Z,93720.66
2019-01-31T10:42:30.123Z,93714.93
2019-01-31T10:43:53.304Z,93712.30
2019-01-31T10:45:05.576Z,93718.61
2019-01-31T10:46:41.313Z,93722.32
2019-01-31T10:48:08.620Z,93721.41
2019-01-31T10:49:23.771Z,93717.86
2019-01-31T10:50:45.106Z,93717.31
2019-01-31T10:51:51.592Z,93716.38
2019-01-31T10:52:58.085Z,93713.55
2019-01-31T10:54:19.276Z,93711.14
2019-01-31T10:55:37.525Z,93706.96
2019-01-31T10:57:06.234Z,93713.10
2019-01-31T10:58:29.264Z,93710.63
2019-01-31T10:59:53.570Z,93706.64
2019-01-31T11:01:00.067Z,93704.72
2019-01-31T11:02:21.357Z,93704.45
2019-01-31T11:03:47.224Z,93706.83
2019-01-31T11:05:15.732Z,93703.39
2019-01-31T11:06:24.918Z,93702.22
2019-01-31T11:07:40.370Z,93703.47
2019-01-31T11:08:52.113Z,93697.80
2019-01-31T11:10:01.452Z,93696.42
2019-01-31T11:11:13.146Z,93695.94
2019-01-31T11:12:40.517Z,93697.63
2019-01-31T11:13:49.436Z,93693.69
2019-01-31T11:15:01.419Z,93698.39
2019-01-31T11:16:19.107Z,93701.06
2019-01-31T11:17:37.313Z,93693.67
2019-01-31T11:18:46.359Z,93694.48
2019-01-31T11:19:58.647Z,93690.47
2019-01-31T11:21:21.483Z,93692.83
2019-01-31T11:22:51.734Z,93687.62
2019-01-31T11:24:12.161Z,93686.36
2019-01-31T11:25:37.743Z,93684.80
2019-01-31T11:27:01.811Z,93683.56
2019-01-31T11:28:24.780Z,93681.64
2019-01-31T11:29:40.018Z,93683.37
2019-01-31T11:30:49.245Z,93681.70
2019-01-31T11:32:19.659Z,93678.53
2019-01-31T11:33:40.834Z,93669.41
2019-01-31T11:35:02.101Z,93666.85
2019-01-31T11:36:27.773Z,93666.86
2019-01-31T11:37:45.701Z,93663.19
2019-01-31T11:39:00.736Z,93655.52
2019-01-31T11:40:07.295Z,93656.11
2019-01-31T11:41:13.772Z,93655.76
2019-01-31T11:42:22.699Z,93664.67
2019-01-31T11:43:37.984Z,93657.39
2019-01-31T11:44:47.033Z,93665.33
2019-01-31T11:46:02.111Z,93658.26
2019-01-31T11:47:20.332Z,93665.34
2019-01-31T11:48:35.545Z,93665.63
2019-01-31T11:49:42.060Z,93661.75
2019-01-31T11:51:09.519Z,93661.10
2019-01-31T11:52:16.018Z,93662.28
2019-01-31T11:53:34.405Z,93663.84
2019-01-31T11:54:46.214Z,93663.12
2019-01-31T11:55:58.244Z,93669.45
2019-01-31T11:57:05.778Z,93664.43
2019-01-31T11:58:15.074Z,93664.78
2019-01-31T11:59:18.540Z,93664.53
2019-01-31T12:00:23.624Z,93668.86
2019-01-31T12:01:27.562Z,93664.44
2019-01-31T12:02:31.001Z,93660.91
2019-01-31T12:03:34.423Z,93669.65
2019-01-31T12:04:38.003Z,93666.70
2019-01-31T12:05:41.529Z,93667.64
2019-01-31T12:06:45.092Z,93668.04
2019-01-31T12:07:48.728Z,93663.03
2019-01-31T12:08:52.227Z,93654.47
2019-01-31T12:09:55.743Z,93660.55
2019-01-31T12:10:59.270Z,93662.83
2019-01-31T12:12:02.817Z,93653.39
2019-01-31T12:13:06.456Z,93651.64
2019-01-31T12:14:10.012Z,93651.74
2019-01-31T12:15:13.691Z,93648.34
2019-01-31T12:16:17.203Z,93647.79
2019-01-31T12:17:20.631Z,93648.81
2019-01-31T12:18:24.204Z,93650.02
2019-01-31T12:19:27.708Z,93645.02
2019-01-31T12:20:31.239Z,93647.25
2019-01-31T12:21:34.724Z,93642.81
2019-01-31T12:22:38.222Z,93637.59
2019-01-31T12:23:42.195Z,93635.30
2019-01-31T12:24:45.626Z,93639.88
2019-01-31T12:25:49.205Z,93636.70
2019-01-31T12:26:52.807Z,93632.67
2019-01-31T12:27:56.398Z,93633.67
2019-01-31T12:28:59.904Z,93630.05
2019-01-31T12:30:05.143Z,93629.89
2019-01-31T12:31:08.655Z,93626.20
2019-01-31T12:32:12.148Z,93633.30
2019-01-31T12:33:15.642Z,93622.17
2019-01-31T12:34:19.073Z,93623.53
2019-01-31T12:35:22.597Z,93625.70
2019-01-31T12:36:26.211Z,93621.49
2019-01-31T12:37:29.585Z,93611.03
2019-01-31T12:38:36.867Z,93617.42
2019-01-31T12:39:38.246Z,93607.00
2019-01-31T12:40:41.715Z,93612.52
2019-01-31T12:41:45.358Z,93612.52
2019-01-31T12:42:48.819Z,93610.72
2019-01-31T12:43:52.381Z,93608.11
2019-01-31T12:44:55.809Z,93608.39
2019-01-31T12:45:59.265Z,93602.23
2019-01-31T12:47:02.725Z,93602.23
2019-01-31T12:48:06.291Z,93594.36
2019-01-31T12:49:09.717Z,93596.29
2019-01-31T12:50:21.925Z,93598.91
2019-01-31T12:51:25.528Z,93587.56
2019-01-31T12:52:28.972Z,93595.49
2019-01-31T12:53:32.481Z,93587.70
2019-01-31T12:54:35.992Z,93584.60
2019-01-31T12:55:39.575Z,93591.78
2019-01-31T12:56:43.402Z,93583.86
2019-01-31T12:57:46.981Z,93586.30
2019-01-31T12:58:50.672Z,93582.67
2019-01-31T12:59:54.160Z,93590.05
2019-01-31T13:00:57.684Z,93586.83
2019-01-31T13:02:01.189Z,93586.92
2019-01-31T13:03:04.867Z,93579.20
2019-01-31T13:04:08.370Z,93587.14
2019-01-31T13:05:12.545Z,93574.47
2019-01-31T13:06:16.111Z,93574.47
2019-01-31T13:07:19.563Z,93581.08
2019-01-31T13:08:22.979Z,93584.56
2019-01-31T13:09:28.359Z,93579.26
2019-01-31T13:10:31.643Z,93580.84
2019-01-31T13:11:35.236Z,93578.16
2019-01-31T13:12:48.373Z,93573.11
2019-01-31T13:13:46.030Z,93560.04
2019-01-31T13:14:49.396Z,93559.71
2019-01-31T13:15:52.962Z,93559.71
2019-01-31T13:16:56.441Z,93559.03
2019-01-31T13:17:59.972Z,93573.30
2019-01-31T13:19:03.468Z,93573.30
2019-01-31T13:20:10.425Z,93564.67
2019-01-31T13:21:14.024Z,93564.67
2019-01-31T13:22:17.750Z,93569.48
2019-01-31T13:23:21.340Z,93571.81
2019-01-31T13:24:24.760Z,93571.23
2019-01-31T13:25:28.731Z,93562.92
2019-01-31T13:26:32.394Z,93562.92
2019-01-31T13:27:35.862Z,93562.38
2019-01-31T13:28:39.361Z,93558.09
2019-01-31T13:29:42.927Z,93564.81
2019-01-31T13:30:46.457Z,93564.81
2019-01-31T13:31:50.156Z,93563.74
2019-01-31T13:32:55.499Z,93563.74
2019-01-31T13:33:59.043Z,93561.31
2019-01-31T13:35:02.591Z,93564.52
2019-01-31T13:36:09.033Z,93557.83
2019-01-31T13:37:12.709Z,93560.50
2019-01-31T13:38:16.287Z,93560.50
2019-01-31T13:39:20.287Z,93565.56